sensor_id;sensor_type;location;lat;lon;timestamp;pressure;altitude;pressure_sealevel;temperature;humidity
71107;BME280;58763;47.982;11.516;2023-03-23T00:01:07;93716.84;;;8.24;69.17
71107;BME280;58763;47.982;11.516;2023-03-23T00:03:36;93722.34;;;8.14;69.98
71107;BME280;58763;47.982;11.516;2023-03-23T00:06:02;93723.34;;;8.28;69.31
71107;BME280;58763;47.982;11.516;2023-03-23T00:08:35;93718.91;;;8.42;68.82
71107;BME280;58763;47.982;11.516;2023-03-23T00:11:15;93720.72;;;8.52;68.27
71107;BME280;58763;47.982;11.516;2023-03-23T00:13:44;93726.31;;;8.55;68.07
71107;BME280;58763;47.982;11.516;2023-03-23T00:16:12;93720.25;;;8.68;67.61
71107;BME280;58763;47.982;11.516;2023-03-23T00:18:48;93725.38;;;8.70;66.81
71107;BME280;58763;47.982;11.516;2023-03-23T00:21:18;93718.28;;;8.79;66.44
71107;BME280;58763;47.982;11.516;2023-03-23T00:23:44;93715.22;;;8.85;66.24
71107;BME280;58763;47.982;11.516;2023-03-23T00:26:11;93716.56;;;8.88;66.16
71107;BME280;58763;47.982;11.516;2023-03-23T00:28:38;93714.78;;;8.78;66.50
71107;BME280;58763;47.982;11.516;2023-03-23T00:31:07;93716.53;;;8.64;67.75
71107;BME280;58763;47.982;11.516;2023-03-23T00:33:36;93716.06;;;8.57;68.00
71107;BME280;58763;47.982;11.516;2023-03-23T00:36:11;93712.63;;;8.52;68.76
71107;BME280;58763;47.982;11.516;2023-03-23T00:38:38;93713.91;;;8.54;68.44
71107;BME280;58763;47.982;11.516;2023-03-23T00:41:05;93707.94;;;8.62;67.98
71107;BME280;58763;47.982;11.516;2023-03-23T00:43:32;93710.78;;;8.71;68.17
71107;BME280;58763;47.982;11.516;2023-03-23T00:46:02;93703.22;;;8.73;67.88
71107;BME280;58763;47.982;11.516;2023-03-23T00:48:34;93708.06;;;8.76;68.06
71107;BME280;58763;47.982;11.516;2023-03-23T00:51:02;93708.06;;;8.76;67.11
71107;BME280;58763;47.982;11.516;2023-03-23T00:53:34;93712.53;;;8.85;66.72
71107;BME280;58763;47.982;11.516;2023-03-23T00:56:00;93706.59;;;8.88;66.45
71107;BME280;58763;47.982;11.516;2023-03-23T00:58:25;93713.00;;;8.92;66.62
71107;BME280;58763;47.982;11.516;2023-03-23T01:00:51;93701.88;;;8.99;66.09
71107;BME280;58763;47.982;11.516;2023-03-23T01:03:17;93697.19;;;9.10;65.79
71107;BME280;58763;47.982;11.516;2023-03-23T01:05:45;93701.97;;;9.13;65.97
71107;BME280;58763;47.982;11.516;2023-03-23T01:08:13;93689.81;;;9.15;65.36
71107;BME280;58763;47.982;11.516;2023-03-23T01:10:39;93703.03;;;9.17;65.53
71107;BME280;58763;47.982;11.516;2023-03-23T01:13:06;93698.75;;;9.11;65.45
71107;BME280;58763;47.982;11.516;2023-03-23T01:15:32;93695.50;;;9.14;65.38
71107;BME280;58763;47.982;11.516;2023-03-23T01:17:57;93700.69;;;9.10;65.65
71107;BME280;58763;47.982;11.516;2023-03-23T01:20:24;93689.81;;;9.15;65.70
71107;BME280;58763;47.982;11.516;2023-03-23T01:22:52;93692.34;;;9.07;65.55
71107;BME280;58763;47.982;11.516;2023-03-23T01:25:18;93689.03;;;9.15;65.41
71107;BME280;58763;47.982;11.516;2023-03-23T01:27:44;93685.34;;;9.05;66.00
71107;BME280;58763;47.982;11.516;2023-03-23T01:30:11;93682.78;;;8.95;66.47
71107;BME280;58763;47.982;11.516;2023-03-23T01:32:38;93691.38;;;8.97;66.29
71107;BME280;58763;47.982;11.516;2023-03-23T01:35:04;93685.47;;;8.95;66.23
71107;BME280;58763;47.982;11.516;2023-03-23T01:37:30;93684.88;;;8.98;65.79
71107;BME280;58763;47.982;11.516;2023-03-23T01:39:56;93681.16;;;8.94;66.07
71107;BME280;58763;47.982;11.516;2023-03-23T01:42:30;93685.56;;;8.85;66.75
71107;BME280;58763;47.982;11.516;2023-03-23T01:45:34;93676.91;;;8.88;66.53
71107;BME280;58763;47.982;11.516;2023-03-23T01:48:15;93681.22;;;8.89;66.86
71107;BME280;58763;47.982;11.516;2023-03-23T01:50:51;93685.13;;;9.02;66.01
71107;BME280;58763;47.982;11.516;2023-03-23T01:53:19;93678.91;;;9.01;65.73
71107;BME280;58763;47.982;11.516;2023-03-23T01:55:47;93677.19;;;9.11;65.49
71107;BME280;58763;47.982;11.516;2023-03-23T01:58:19;93678.00;;;9.11;65.67
71107;BME280;58763;47.982;11.516;2023-03-23T02:00:46;93670.41;;;9.13;65.43
71107;BME280;58763;47.982;11.516;2023-03-23T02:03:14;93680.25;;;9.04;65.51
71107;BME280;58763;47.982;11.516;2023-03-23T02:05:41;93681.84;;;9.05;65.75
71107;BME280;58763;47.982;11.516;2023-03-23T02:08:09;93678.91;;;9.01;66.15
71107;BME280;58763;47.982;11.516;2023-03-23T02:10:36;93671.69;;;8.97;66.14
71107;BME280;58763;47.982;11.516;2023-03-23T02:13:04;93674.91;;;8.99;66.01
71107;BME280;58763;47.982;11.516;2023-03-23T02:18:35;93670.22;;;8.86;66.80
71107;BME280;58763;47.982;11.516;2023-03-23T02:21:28;93674.28;;;8.83;67.22
71107;BME280;58763;47.982;11.516;2023-03-23T02:24:22;93672.19;;;8.75;67.45
71107;BME280;58763;47.982;11.516;2023-03-23T02:26:57;93662.53;;;8.74;67.30
71107;BME280;58763;47.982;11.516;2023-03-23T02:35:29;93658.84;;;8.65;67.65
71107;BME280;58763;47.982;11.516;2023-03-23T02:37:57;93659.94;;;8.64;67.59
71107;BME280;58763;47.982;11.516;2023-03-23T02:40:33;93663.09;;;8.71;67.04
71107;BME280;58763;47.982;11.516;2023-03-23T02:43:03;93665.84;;;8.66;67.38
71107;BME280;58763;47.982;11.516;2023-03-23T02:45:33;93659.88;;;8.69;67.99
71107;BME280;58763;47.982;11.516;2023-03-23T02:48:01;93656.44;;;8.64;68.55
71107;BME280;58763;47.982;11.516;2023-03-23T02:50:29;93658.00;;;8.70;67.80
71107;BME280;58763;47.982;11.516;2023-03-23T02:52:58;93665.38;;;8.59;68.17
71107;BME280;58763;47.982;11.516;2023-03-23T02:55:26;93655.91;;;8.62;67.73
71107;BME280;58763;47.982;11.516;2023-03-23T02:57:54;93662.88;;;8.68;67.70
71107;BME280;58763;47.982;11.516;2023-03-23T03:00:20;93660.91;;;8.73;67.33
71107;BME280;58763;47.982;11.516;2023-03-23T03:02:48;93660.38;;;8.71;67.35
71107;BME280;58763;47.982;11.516;2023-03-23T03:05:52;93663.56;;;8.78;66.87
71107;BME280;58763;47.982;11.516;2023-03-23T03:11:08;93665.13;;;8.84;66.35
71107;BME280;58763;47.982;11.516;2023-03-23T03:13:55;93661.25;;;8.90;66.49
71107;BME280;58763;47.982;11.516;2023-03-23T03:19:09;93673.06;;;8.94;66.31
71107;BME280;58763;47.982;11.516;2023-03-23T03:21:44;93664.81;;;8.86;66.44
71107;BME280;58763;47.982;11.516;2023-03-23T03:24:15;93664.56;;;8.82;66.72
71107;BME280;58763;47.982;11.516;2023-03-23T03:26:46;93668.53;;;8.90;66.17
71107;BME280;58763;47.982;11.516;2023-03-23T03:29:19;93664.06;;;8.80;67.00
71107;BME280;58763;47.982;11.516;2023-03-23T03:31:47;93667.59;;;8.52;67.86
71107;BME280;58763;47.982;11.516;2023-03-23T03:34:15;93665.16;;;8.56;68.36
71107;BME280;58763;47.982;11.516;2023-03-23T03:36:45;93671.75;;;8.45;68.38
71107;BME280;58763;47.982;11.516;2023-03-23T03:39:12;93672.34;;;8.65;67.70
71107;BME280;58763;47.982;11.516;2023-03-23T03:41:40;93669.72;;;8.55;67.66
71107;BME280;58763;47.982;11.516;2023-03-23T03:44:07;93678.31;;;8.57;67.83
71107;BME280;58763;47.982;11.516;2023-03-23T03:46:33;93683.97;;;8.61;67.61
71107;BME280;58763;47.982;11.516;2023-03-23T03:49:01;93682.59;;;8.63;67.20
71107;BME280;58763;47.982;11.516;2023-03-23T03:51:28;93688.88;;;8.54;67.16
71107;BME280;58763;47.982;11.516;2023-03-23T03:53:54;93677.06;;;8.50;67.69
71107;BME280;58763;47.982;11.516;2023-03-23T03:56:21;93676.34;;;8.39;67.89
71107;BME280;58763;47.982;11.516;2023-03-23T03:58:48;93680.13;;;8.38;67.99
71107;BME280;58763;47.982;11.516;2023-03-23T04:01:15;93684.00;;;8.27;68.58
71107;BME280;58763;47.982;11.516;2023-03-23T04:03:42;93687.00;;;8.20;68.40
71107;BME280;58763;47.982;11.516;2023-03-23T04:06:08;93688.84;;;8.30;68.44
71107;BME280;58763;47.982;11.516;2023-03-23T04:08:36;93679.66;;;8.31;68.36
71107;BME280;58763;47.982;11.516;2023-03-23T04:11:03;93679.72;;;8.26;68.59
71107;BME280;58763;47.982;11.516;2023-03-23T04:13:29;93674.88;;;8.23;69.04
71107;BME280;58763;47.982;11.516;2023-03-23T04:15:55;93677.81;;;8.21;69.06
71107;BME280;58763;47.982;11.516;2023-03-23T04:18:21;93672.41;;;8.26;68.72
71107;BME280;58763;47.982;11.516;2023-03-23T04:20:48;93678.13;;;8.20;69.18
71107;BME280;58763;47.982;11.516;2023-03-23T04:23:18;93688.34;;;8.23;69.28
71107;BME280;58763;47.982;11.516;2023-03-23T04:25:51;93684.53;;;8.24;69.50
71107;BME280;58763;47.982;11.516;2023-03-23T04:28:19;93686.69;;;8.27;69.13
71107;BME280;58763;47.982;11.516;2023-03-23T04:30:49;93687.50;;;8.27;69.38
71107;BME280;58763;47.982;11.516;2023-03-23T04:33:22;93678.38;;;8.23;69.23
71107;BME280;58763;47.982;11.516;2023-03-23T04:35:56;93694.22;;;8.30;69.20
71107;BME280;58763;47.982;11.516;2023-03-23T04:38:27;93710.31;;;8.40;69.61
71107;BME280;58763;47.982;11.516;2023-03-23T04:40:53;93708.16;;;8.37;69.49
71107;BME280;58763;47.982;11.516;2023-03-23T04:43:21;93695.72;;;8.41;68.99
71107;BME280;58763;47.982;11.516;2023-03-23T04:45:58;93702.16;;;8.45;68.66
71107;BME280;58763;47.982;11.516;2023-03-23T04:48:26;93701.41;;;8.40;68.84
71107;BME280;58763;47.982;11.516;2023-03-23T04:50:53;93705.69;;;8.41;68.86
71107;BME280;58763;47.982;11.516;2023-03-23T04:53:19;93702.56;;;8.28;69.14
71107;BME280;58763;47.982;11.516;2023-03-23T04:55:45;93707.69;;;8.30;69.36
71107;BME280;58763;47.982;11.516;2023-03-23T04:58:12;93707.19;;;8.23;69.20
71107;BME280;58763;47.982;11.516;2023-03-23T05:00:40;93699.44;;;8.16;69.87
71107;BME280;58763;47.982;11.516;2023-03-23T05:03:11;93700.03;;;8.08;70.38
71107;BME280;58763;47.982;11.516;2023-03-23T05:05:42;93709.63;;;8.19;70.88
71107;BME280;58763;47.982;11.516;2023-03-23T05:08:08;93712.38;;;8.14;70.57
71107;BME280;58763;47.982;11.516;2023-03-23T05:10:34;93703.00;;;8.07;70.61
71107;BME280;58763;47.982;11.516;2023-03-23T05:12:59;93705.66;;;8.12;70.59
71107;BME280;58763;47.982;11.516;2023-03-23T05:15:25;93702.91;;;8.17;70.18
71107;BME280;58763;47.982;11.516;2023-03-23T05:17:52;93706.50;;;8.07;70.69
71107;BME280;58763;47.982;11.516;2023-03-23T05:20:18;93703.53;;;8.09;70.35
71107;BME280;58763;47.982;11.516;2023-03-23T05:22:46;93705.84;;;8.20;69.90
71107;BME280;58763;47.982;11.516;2023-03-23T05:25:15;93716.84;;;8.24;70.32
71107;BME280;58763;47.982;11.516;2023-03-23T05:27:47;93707.69;;;8.25;69.86
71107;BME280;58763;47.982;11.516;2023-03-23T05:30:18;93713.38;;;8.23;70.05
71107;BME280;58763;47.982;11.516;2023-03-23T05:32:44;93714.75;;;8.26;69.78
71107;BME280;58763;47.982;11.516;2023-03-23T05:35:11;93717.38;;;8.31;70.07
71107;BME280;58763;47.982;11.516;2023-03-23T05:37:38;93715.78;;;8.25;70.07
71107;BME280;58763;47.982;11.516;2023-03-23T05:40:05;93718.19;;;8.31;70.08
71107;BME280;58763;47.982;11.516;2023-03-23T05:42:33;93723.22;;;8.38;69.98
71107;BME280;58763;47.982;11.516;2023-03-23T05:45:00;93713.59;;;8.32;70.59
71107;BME280;58763;47.982;11.516;2023-03-23T05:47:26;93708.50;;;8.25;71.54
71107;BME280;58763;47.982;11.516;2023-03-23T05:49:52;93719.22;;;8.35;70.26
71107;BME280;58763;47.982;11.516;2023-03-23T05:52:19;93713.53;;;8.42;70.24
71107;BME280;58763;47.982;11.516;2023-03-23T05:54:44;93711.97;;;8.31;70.72
71107;BME280;58763;47.982;11.516;2023-03-23T05:57:10;93715.53;;;8.21;71.22
71107;BME280;58763;47.982;11.516;2023-03-23T05:59:36;93717.66;;;8.24;70.89
71107;BME280;58763;47.982;11.516;2023-03-23T06:02:02;93707.19;;;8.28;70.04
71107;BME280;58763;47.982;11.516;2023-03-23T06:04:28;93704.19;;;8.24;70.32
71107;BME280;58763;47.982;11.516;2023-03-23T06:06:53;93685.13;;;8.26;71.30
71107;BME280;58763;47.982;11.516;2023-03-23T06:09:20;93686.81;;;8.12;70.48
71107;BME280;58763;47.982;11.516;2023-03-23T06:11:46;93689.44;;;8.17;70.32
71107;BME280;58763;47.982;11.516;2023-03-23T06:14:12;93688.06;;;8.19;70.57
71107;BME280;58763;47.982;11.516;2023-03-23T06:16:38;93683.19;;;8.26;70.18
71107;BME280;58763;47.982;11.516;2023-03-23T06:19:04;93679.06;;;8.39;69.97
71107;BME280;58763;47.982;11.516;2023-03-23T06:21:30;93683.75;;;8.52;69.03
71107;BME280;58763;47.982;11.516;2023-03-23T06:23:56;93685.81;;;8.65;69.31
71107;BME280;58763;47.982;11.516;2023-03-23T06:26:27;93686.63;;;8.66;69.20
71107;BME280;58763;47.982;11.516;2023-03-23T06:28:54;93693.16;;;8.83;68.77
71107;BME280;58763;47.982;11.516;2023-03-23T06:31:20;93710.47;;;8.77;69.16
71107;BME280;58763;47.982;11.516;2023-03-23T06:33:45;93698.88;;;8.77;69.52
71107;BME280;58763;47.982;11.516;2023-03-23T06:36:12;93704.78;;;8.79;69.83
71107;BME280;58763;47.982;11.516;2023-03-23T06:38:38;93707.44;;;8.84;70.14
71107;BME280;58763;47.982;11.516;2023-03-23T06:41:04;93706.59;;;8.88;69.99
71107;BME280;58763;47.982;11.516;2023-03-23T06:43:30;93704.97;;;8.87;69.77
71107;BME280;58763;47.982;11.516;2023-03-23T06:45:59;93701.00;;;8.80;69.97
71107;BME280;58763;47.982;11.516;2023-03-23T06:48:25;93699.16;;;8.75;69.84
71107;BME280;58763;47.982;11.516;2023-03-23T06:50:52;93692.78;;;8.66;69.39
71107;BME280;58763;47.982;11.516;2023-03-23T06:53:17;93684.94;;;8.70;69.31
71107;BME280;58763;47.982;11.516;2023-03-23T06:55:45;93681.53;;;8.59;69.94
71107;BME280;58763;47.982;11.516;2023-03-23T06:58:11;93681.78;;;8.63;70.05
71107;BME280;58763;47.982;11.516;2023-03-23T07:00:37;93679.81;;;8.68;69.65
71107;BME280;58763;47.982;11.516;2023-03-23T07:03:02;93678.97;;;8.73;69.77
71107;BME280;58763;47.982;11.516;2023-03-23T07:05:29;93683.78;;;8.76;69.71
71107;BME280;58763;47.982;11.516;2023-03-23T07:07:55;93684.31;;;8.78;69.14
71107;BME280;58763;47.982;11.516;2023-03-23T07:10:21;93674.56;;;8.82;69.86
71107;BME280;58763;47.982;11.516;2023-03-23T07:12:47;93673.56;;;8.96;69.17
71107;BME280;58763;47.982;11.516;2023-03-23T07:15:13;93675.94;;;9.03;69.58
71107;BME280;58763;47.982;11.516;2023-03-23T07:17:40;93672.09;;;9.09;69.55
71107;BME280;58763;47.982;11.516;2023-03-23T07:20:06;93676.06;;;9.17;69.07
71107;BME280;58763;47.982;11.516;2023-03-23T07:22:32;93671.66;;;9.21;68.95
71107;BME280;58763;47.982;11.516;2023-03-23T07:24:58;93675.47;;;9.38;68.65
71107;BME280;58763;47.982;11.516;2023-03-23T07:27:24;93680.19;;;9.51;67.67
71107;BME280;58763;47.982;11.516;2023-03-23T07:29:49;93669.31;;;9.56;68.26
71107;BME280;58763;47.982;11.516;2023-03-23T07:32:15;93675.66;;;9.65;68.25
71107;BME280;58763;47.982;11.516;2023-03-23T07:34:41;93682.22;;;9.78;68.04
71107;BME280;58763;47.982;11.516;2023-03-23T07:37:07;93679.38;;;9.88;68.20
71107;BME280;58763;47.982;11.516;2023-03-23T07:39:33;93681.94;;;9.98;68.17
71107;BME280;58763;47.982;11.516;2023-03-23T07:41:58;93682.63;;;10.04;67.43
71107;BME280;58763;47.982;11.516;2023-03-23T07:44:24;93680.66;;;10.09;67.26
71107;BME280;58763;47.982;11.516;2023-03-23T07:46:49;93681.53;;;10.23;67.95
71107;BME280;58763;47.982;11.516;2023-03-23T07:49:16;93685.69;;;10.34;67.51
71107;BME280;58763;47.982;11.516;2023-03-23T07:51:43;93678.88;;;10.37;68.10
71107;BME280;58763;47.982;11.516;2023-03-23T07:54:08;93687.03;;;10.51;66.71
71107;BME280;58763;47.982;11.516;2023-03-23T07:56:35;93671.84;;;10.55;66.88
71107;BME280;58763;47.982;11.516;2023-03-23T07:59:02;93666.72;;;10.67;65.66
71107;BME280;58763;47.982;11.516;2023-03-23T08:01:28;93660.81;;;10.78;65.31
71107;BME280;58763;47.982;11.516;2023-03-23T08:03:54;93664.56;;;10.82;66.28
71107;BME280;58763;47.982;11.516;2023-03-23T08:06:25;93658.84;;;10.97;65.73
71107;BME280;58763;47.982;11.516;2023-03-23T08:08:51;93666.56;;;11.18;68.26
71107;BME280;58763;47.982;11.516;2023-03-23T08:11:18;93662.34;;;11.39;66.18
71107;BME280;58763;47.982;11.516;2023-03-23T08:13:45;93669.72;;;11.60;66.00
71107;BME280;58763;47.982;11.516;2023-03-23T08:16:11;93676.38;;;11.68;65.02
71107;BME280;58763;47.982;11.516;2023-03-23T08:18:39;93672.75;;;11.72;62.91
71107;BME280;58763;47.982;11.516;2023-03-23T08:21:06;93676.81;;;11.84;63.61
71107;BME280;58763;47.982;11.516;2023-03-23T08:23:32;93675.63;;;11.90;63.67
71107;BME280;58763;47.982;11.516;2023-03-23T08:25:58;93676.47;;;11.99;64.30
71107;BME280;58763;47.982;11.516;2023-03-23T08:28:24;93668.41;;;12.07;63.55
71107;BME280;58763;47.982;11.516;2023-03-23T08:30:50;93671.72;;;12.04;63.65
71107;BME280;58763;47.982;11.516;2023-03-23T08:33:16;93671.88;;;11.99;63.81
71107;BME280;58763;47.982;11.516;2023-03-23T08:35:41;93679.09;;;12.04;63.65
71107;BME280;58763;47.982;11.516;2023-03-23T08:38:10;93680.06;;;12.08;63.13
71107;BME280;58763;47.982;11.516;2023-03-23T08:40:37;93685.81;;;12.06;63.55
71107;BME280;58763;47.982;11.516;2023-03-23T08:43:03;93684.50;;;12.04;63.52
71107;BME280;58763;47.982;11.516;2023-03-23T08:45:29;93689.38;;;12.15;62.33
71107;BME280;58763;47.982;11.516;2023-03-23T08:47:55;93682.16;;;12.11;63.65
71107;BME280;58763;47.982;11.516;2023-03-23T08:50:26;93685.75;;;12.20;63.18
71107;BME280;58763;47.982;11.516;2023-03-23T08:52:53;93694.84;;;12.24;62.20
71107;BME280;58763;47.982;11.516;2023-03-23T08:55:21;93684.50;;;12.26;62.70
71107;BME280;58763;47.982;11.516;2023-03-23T08:57:47;93683.16;;;12.37;63.47
71107;BME280;58763;47.982;11.516;2023-03-23T09:00:16;93684.31;;;12.44;63.34
71107;BME280;58763;47.982;11.516;2023-03-23T09:02:45;93686.22;;;12.44;63.28
71107;BME280;58763;47.982;11.516;2023-03-23T09:05:11;93680.63;;;12.40;64.88
71107;BME280;58763;47.982;11.516;2023-03-23T09:07:39;93682.41;;;12.45;64.77
71107;BME280;58763;47.982;11.516;2023-03-23T09:10:06;93692.09;;;12.60;64.99
71107;BME280;58763;47.982;11.516;2023-03-23T09:12:32;93688.31;;;12.69;65.17
71107;BME280;58763;47.982;11.516;2023-03-23T09:14:57;93702.88;;;12.73;64.73
71107;BME280;58763;47.982;11.516;2023-03-23T09:17:23;93698.28;;;12.82;64.30
71107;BME280;58763;47.982;11.516;2023-03-23T09:19:49;93702.31;;;12.93;63.66
71107;BME280;58763;47.982;11.516;2023-03-23T09:22:14;93710.13;;;13.08;62.58
71107;BME280;58763;47.982;11.516;2023-03-23T09:24:45;93709.34;;;13.16;62.63
71107;BME280;58763;47.982;11.516;2023-03-23T09:27:11;93717.00;;;13.14;63.08
71107;BME280;58763;47.982;11.516;2023-03-23T09:29:37;93720.38;;;13.20;62.36
71107;BME280;58763;47.982;11.516;2023-03-23T09:32:02;93722.28;;;13.20;62.13
71107;BME280;58763;47.982;11.516;2023-03-23T09:34:28;93723.41;;;13.18;61.02
71107;BME280;58763;47.982;11.516;2023-03-23T09:36:54;93727.75;;;13.28;61.35
71107;BME280;58763;47.982;11.516;2023-03-23T09:39:20;93723.81;;;13.43;59.14
71107;BME280;58763;47.982;11.516;2023-03-23T09:47:17;93749.06;;;13.35;59.57
71107;BME280;58763;47.982;11.516;2023-03-23T09:50:04;93752.00;;;13.16;59.87
71107;BME280;58763;47.982;11.516;2023-03-23T09:55:20;93739.38;;;13.20;61.86
71107;BME280;58763;47.982;11.516;2023-03-23T09:57:59;93738.53;;;13.42;61.55
71107;BME280;58763;47.982;11.516;2023-03-23T10:00:40;93737.00;;;13.58;60.19
71107;BME280;58763;47.982;11.516;2023-03-23T10:03:16;93721.84;;;13.74;61.91
71107;BME280;58763;47.982;11.516;2023-03-23T10:05:49;93717.75;;;14.02;59.05
71107;BME280;58763;47.982;11.516;2023-03-23T10:08:20;93729.78;;;14.27;60.06
71107;BME280;58763;47.982;11.516;2023-03-23T10:14:04;93730.91;;;14.69;56.52
71107;BME280;58763;47.982;11.516;2023-03-23T10:16:36;93742.28;;;14.88;55.56
71107;BME280;58763;47.982;11.516;2023-03-23T10:19:20;93740.34;;;14.88;54.74
71107;BME280;58763;47.982;11.516;2023-03-23T10:21:54;93745.31;;;14.95;54.54
71107;BME280;58763;47.982;11.516;2023-03-23T10:24:28;93745.13;;;14.91;53.18
71107;BME280;58763;47.982;11.516;2023-03-23T10:27:28;93743.53;;;14.99;53.90
71107;BME280;58763;47.982;11.516;2023-03-23T10:30:19;93741.41;;;15.13;53.60
71107;BME280;58763;47.982;11.516;2023-03-23T10:32:52;93745.09;;;15.17;54.69
71107;BME280;58763;47.982;11.516;2023-03-23T10:35:25;93745.72;;;15.22;54.45
71107;BME280;58763;47.982;11.516;2023-03-23T10:38:04;93758.97;;;15.41;52.97
71107;BME280;58763;47.982;11.516;2023-03-23T10:40:31;93756.56;;;15.48;53.04
71107;BME280;58763;47.982;11.516;2023-03-23T10:43:00;93760.88;;;15.41;52.93
71107;BME280;58763;47.982;11.516;2023-03-23T10:45:29;93756.56;;;15.48;51.28
71107;BME280;58763;47.982;11.516;2023-03-23T10:50:38;93747.03;;;15.71;50.09
71107;BME280;58763;47.982;11.516;2023-03-23T10:53:15;93755.81;;;15.77;50.62
71107;BME280;58763;47.982;11.516;2023-03-23T10:55:42;93754.84;;;15.81;50.83
71107;BME280;58763;47.982;11.516;2023-03-23T10:58:23;93746.94;;;15.88;50.88
71107;BME280;58763;47.982;11.516;2023-03-23T11:00:49;93745.25;;;16.05;51.26
71107;BME280;58763;47.982;11.516;2023-03-23T11:05:51;93752.28;;;16.06;50.45
71107;BME280;58763;47.982;11.516;2023-03-23T11:08:22;93749.66;;;16.18;50.29
71107;BME280;58763;47.982;11.516;2023-03-23T11:10:55;93747.38;;;16.20;49.42
71107;BME280;58763;47.982;11.516;2023-03-23T11:13:31;93737.44;;;16.24;48.58
71107;BME280;58763;47.982;11.516;2023-03-23T11:15:58;93743.81;;;16.28;49.14
71107;BME280;58763;47.982;11.516;2023-03-23T11:18:35;93749.56;;;16.35;49.88
71107;BME280;58763;47.982;11.516;2023-03-23T11:21:01;93752.41;;;16.38;48.58
71107;BME280;58763;47.982;11.516;2023-03-23T11:23:50;93747.91;;;16.42;47.40
71107;BME280;58763;47.982;11.516;2023-03-23T11:26:29;93746.34;;;16.33;48.00
71107;BME280;58763;47.982;11.516;2023-03-23T11:29:08;93744.47;;;16.45;47.81
71107;BME280;58763;47.982;11.516;2023-03-23T11:36:43;93753.03;;;16.65;47.46
71107;BME280;58763;47.982;11.516;2023-03-23T11:39:31;93746.94;;;16.68;48.29
71107;BME280;58763;47.982;11.516;2023-03-23T11:42:11;93749.00;;;16.71;46.25
71107;BME280;58763;47.982;11.516;2023-03-23T11:44:41;93737.72;;;16.72;48.80
71107;BME280;58763;47.982;11.516;2023-03-23T11:50:09;93742.25;;;16.89;49.57
71107;BME280;58763;47.982;11.516;2023-03-23T11:58:20;93743.59;;;17.15;46.69
71107;BME280;58763;47.982;11.516;2023-03-23T12:00:59;93731.50;;;17.04;43.42
71107;BME280;58763;47.982;11.516;2023-03-23T12:03:54;93730.19;;;17.22;44.34
71107;BME280;58763;47.982;11.516;2023-03-23T12:06:56;93717.47;;;17.39;43.62
71107;BME280;58763;47.982;11.516;2023-03-23T12:20:28;93712.31;;;17.70;44.00
71107;BME280;58763;47.982;11.516;2023-03-23T12:23:11;93713.91;;;17.71;43.15
71107;BME280;58763;47.982;11.516;2023-03-23T12:26:05;93702.25;;;17.50;40.35
71107;BME280;58763;47.982;11.516;2023-03-23T12:43:04;93701.91;;;17.06;42.93
71107;BME280;58763;47.982;11.516;2023-03-23T12:48:16;93702.59;;;17.03;41.98
71107;BME280;58763;47.982;11.516;2023-03-23T12:53:28;93691.47;;;16.88;40.74
71107;BME280;58763;47.982;11.516;2023-03-23T12:56:13;93692.94;;;16.85;41.88
71107;BME280;58763;47.982;11.516;2023-03-23T12:58:44;93693.50;;;16.79;42.35
71107;BME280;58763;47.982;11.516;2023-03-23T13:01:19;93684.31;;;16.83;42.67
71107;BME280;58763;47.982;11.516;2023-03-23T13:03:54;93682.03;;;16.85;42.10
71107;BME280;58763;47.982;11.516;2023-03-23T13:11:29;93678.78;;;16.71;39.64
71107;BME280;58763;47.982;11.516;2023-03-23T13:14:26;93677.22;;;16.70;40.99
71107;BME280;58763;47.982;11.516;2023-03-23T13:17:10;93678.28;;;16.57;40.83
71107;BME280;58763;47.982;11.516;2023-03-23T13:20:12;93685.25;;;16.67;41.52
71107;BME280;58763;47.982;11.516;2023-03-23T13:25:19;93688.06;;;16.58;40.19
71107;BME280;58763;47.982;11.516;2023-03-23T13:27:59;93689.69;;;16.59;39.73
71107;BME280;58763;47.982;11.516;2023-03-23T13:30:26;93689.69;;;16.59;41.30
71107;BME280;58763;47.982;11.516;2023-03-23T13:33:05;93681.16;;;16.61;39.50
71107;BME280;58763;47.982;11.516;2023-03-23T13:35:36;93685.16;;;16.63;40.90
71107;BME280;58763;47.982;11.516;2023-03-23T13:38:19;93683.06;;;16.60;39.24
71107;BME280;58763;47.982;11.516;2023-03-23T13:40:46;93679.78;;;16.46;39.12
71107;BME280;58763;47.982;11.516;2023-03-23T13:43:12;93677.41;;;16.44;40.44
71107;BME280;58763;47.982;11.516;2023-03-23T13:45:47;93676.00;;;16.38;39.83
71107;BME280;58763;47.982;11.516;2023-03-23T13:56:19;93670.41;;;16.35;41.41
71107;BME280;58763;47.982;11.516;2023-03-23T13:58:50;93666.56;;;16.36;42.08
71107;BME280;58763;47.982;11.516;2023-03-23T14:01:19;93673.41;;;16.42;42.66
71107;BME280;58763;47.982;11.516;2023-03-23T14:03:59;93665.03;;;16.47;42.26
71107;BME280;58763;47.982;11.516;2023-03-23T14:06:26;93667.06;;;16.50;41.40
71107;BME280;58763;47.982;11.516;2023-03-23T14:09:04;93673.22;;;16.47;42.27
71107;BME280;58763;47.982;11.516;2023-03-23T14:11:31;93675.78;;;16.43;42.12
71107;BME280;58763;47.982;11.516;2023-03-23T14:14:06;93677.69;;;16.31;41.89
71107;BME280;58763;47.982;11.516;2023-03-23T14:16:43;93670.44;;;16.14;42.30
71107;BME280;58763;47.982;11.516;2023-03-23T14:19:28;93672.22;;;16.10;42.42
71107;BME280;58763;47.982;11.516;2023-03-23T14:21:59;93670.34;;;16.02;42.62
71107;BME280;58763;47.982;11.516;2023-03-23T14:24:33;93674.06;;;15.98;44.23
71107;BME280;58763;47.982;11.516;2023-03-23T14:27:14;93661.59;;;16.17;44.16
71107;BME280;58763;47.982;11.516;2023-03-23T14:29:41;93672.16;;;16.19;43.58
71107;BME280;58763;47.982;11.516;2023-03-23T14:32:12;93668.78;;;16.22;43.59
71107;BME280;58763;47.982;11.516;2023-03-23T14:34:39;93672.41;;;16.26;43.16
71107;BME280;58763;47.982;11.516;2023-03-23T14:37:10;93671.88;;;16.32;42.96
71107;BME280;58763;47.982;11.516;2023-03-23T14:39:36;93669.31;;;16.36;43.22
71107;BME280;58763;47.982;11.516;2023-03-23T14:42:05;93676.59;;;16.44;44.37